createdAt,value
2016-09-16T00:00:48.574Z,1013.05
2016-09-16T00:01:49.245Z,1013.05
2016-09-16T00:02:49.890Z,1013.07
2016-09-16T00:03:50.556Z,1013.04
2016-09-16T00:04:51.193Z,1013.03
2016-09-16T00:05:51.895Z,1013.04
2016-09-16T00:06:52.573Z,1013.02
2016-09-16T00:07:53.225Z,1013.03
2016-09-16T00:08:53.891Z,1013.01
2016-09-16T00:09:54.529Z,1013.05
2016-09-16T00:10:55.165Z,1013.07
2016-09-16T00:11:55.815Z,1013.06
2016-09-16T00:12:56.512Z,1013.08
2016-09-16T00:13:57.170Z,1013.06
2016-09-16T00:14:57.800Z,1013.07
2016-09-16T00:15:58.437Z,1013.04
2016-09-16T00:16:59.083Z,1013.06
2016-09-16T00:17:59.718Z,1013.04
2016-09-16T00:19:00.356Z,1013.05
2016-09-16T00:20:00.994Z,1013.03
2016-09-16T00:21:01.630Z,1013
2016-09-16T00:22:02.298Z,1013.03
2016-09-16T00:23:02.943Z,1012.94
2016-09-16T00:24:03.589Z,1012.98
2016-09-16T00:25:04.235Z,1012.98
2016-09-16T00:26:04.999Z,1012.95
2016-09-16T00:27:05.647Z,1012.95
2016-09-16T00:28:06.280Z,1012.98
2016-09-16T00:29:06.938Z,1012.97
2016-09-16T00:30:07.599Z,1012.98
2016-09-16T00:31:08.236Z,1012.97
2016-09-16T00:32:08.892Z,1012.97
2016-09-16T00:33:09.512Z,1012.99
2016-09-16T00:34:10.144Z,1013.01
2016-09-16T00:35:10.777Z,1012.98
2016-09-16T00:36:11.439Z,1012.97
2016-09-16T00:37:12.099Z,1012.95
2016-09-16T00:38:12.775Z,1012.97
2016-09-16T00:39:13.428Z,1012.96
2016-09-16T00:40:14.066Z,1012.95
2016-09-16T00:41:14.708Z,1012.94
2016-09-16T00:42:15.346Z,1012.98
2016-09-16T00:43:15.977Z,1012.98
2016-09-16T00:44:16.610Z,1012.98
2016-09-16T00:45:17.252Z,1012.98
2016-09-16T00:46:17.896Z,1012.97
2016-09-16T00:47:18.534Z,1012.99
2016-09-16T00:48:19.185Z,1012.99
2016-09-16T00:49:19.824Z,1012.99
2016-09-16T00:50:20.475Z,1012.98
2016-09-16T00:51:21.105Z,1012.96
2016-09-16T00:52:21.740Z,1013.01
2016-09-16T00:53:22.377Z,1013.02
2016-09-16T00:54:23.018Z,1013.03
2016-09-16T00:55:23.666Z,1012.99
2016-09-16T00:56:24.297Z,1013.01
2016-09-16T00:57:24.964Z,1012.97
2016-09-16T00:58:25.608Z,1012.96
2016-09-16T00:59:26.230Z,1012.98
2016-09-16T01:00:26.875Z,1012.93
2016-09-16T01:01:27.510Z,1012.94
2016-09-16T01:02:28.140Z,1012.9
2016-09-16T01:03:28.781Z,1012.88
2016-09-16T01:04:29.418Z,1012.88
2016-09-16T01:05:30.056Z,1012.85
2016-09-16T01:06:30.717Z,1012.9
2016-09-16T01:07:31.373Z,1012.9
2016-09-16T01:08:32.006Z,1012.92
2016-09-16T01:09:32.672Z,1012.88
2016-09-16T01:10:33.353Z,1012.89
2016-09-16T01:11:34.016Z,1012.86
2016-09-16T01:12:34.651Z,1012.89
2016-09-16T01:13:35.302Z,1012.84
2016-09-16T01:14:35.937Z,1012.82
2016-09-16T01:15:36.581Z,1012.85
2016-09-16T01:16:37.230Z,1012.81
2016-09-16T01:17:37.862Z,1012.88
2016-09-16T01:18:38.521Z,1012.86
2016-09-16T01:19:39.172Z,1012.84
2016-09-16T01:20:39.817Z,1012.81
2016-09-16T01:21:40.455Z,1012.83
2016-09-16T01:22:41.117Z,1012.82
2016-09-16T01:23:41.774Z,1012.8
2016-09-16T01:24:42.405Z,1012.79
2016-09-16T01:25:43.046Z,1012.81
2016-09-16T01:26:43.709Z,1012.78
2016-09-16T01:27:44.399Z,1012.78
2016-09-16T01:28:45.046Z,1012.83
2016-09-16T01:29:45.667Z,1012.83
2016-09-16T01:30:46.310Z,1012.79
2016-09-16T01:31:46.945Z,1012.78
2016-09-16T01:32:47.598Z,1012.81
2016-09-16T01:33:48.262Z,1012.77
2016-09-16T01:34:48.895Z,1012.77
2016-09-16T01:35:49.546Z,1012.79
2016-09-16T01:36:50.185Z,1012.77
2016-09-16T01:37:50.822Z,1012.77
2016-09-16T01:38:51.499Z,1012.78
2016-09-16T01:39:52.143Z,1012.78
2016-09-16T01:40:52.778Z,1012.75
2016-09-16T01:41:53.419Z,1012.75
2016-09-16T01:42:54.045Z,1012.76
2016-09-16T01:43:54.705Z,1012.79
2016-09-16T01:44:55.350Z,1012.79
2016-09-16T01:45:55.997Z,1012.77
2016-09-16T01:46:56.627Z,1012.77
2016-09-16T01:47:57.284Z,1012.79
2016-09-16T01:48:57.938Z,1012.79
2016-09-16T01:49:58.594Z,1012.74
2016-09-16T01:50:59.233Z,1012.73
2016-09-16T01:51:59.869Z,1012.76
2016-09-16T01:53:00.519Z,1012.78
2016-09-16T01:54:01.161Z,1012.77
2016-09-16T01:55:01.802Z,1012.75
2016-09-16T01:56:02.456Z,1012.74
2016-09-16T01:57:03.097Z,1012.74
2016-09-16T01:58:03.753Z,1012.76
2016-09-16T01:59:04.395Z,1012.77
2016-09-16T02:00:05.045Z,1012.81
2016-09-16T02:01:05.687Z,1012.78
2016-09-16T02:02:06.336Z,1012.78
2016-09-16T02:03:06.979Z,1012.81
2016-09-16T02:04:07.627Z,1012.8
2016-09-16T02:05:08.273Z,1012.75
2016-09-16T02:06:08.932Z,1012.78
2016-09-16T02:07:09.555Z,1012.75
2016-09-16T02:08:10.194Z,1012.77
2016-09-16T02:09:10.827Z,1012.74
2016-09-16T02:10:11.484Z,1012.76
2016-09-16T02:11:12.129Z,1012.74
2016-09-16T02:12:12.798Z,1012.71
2016-09-16T02:13:13.445Z,1012.7
2016-09-16T02:14:14.096Z,1012.72
2016-09-16T02:15:14.739Z,1012.67
2016-09-16T02:16:15.406Z,1012.66
2016-09-16T02:17:16.034Z,1012.65
2016-09-16T02:18:16.696Z,1012.62
2016-09-16T02:19:17.342Z,1012.59
2016-09-16T02:20:18.000Z,1012.54
2016-09-16T02:21:18.647Z,1012.55
2016-09-16T02:22:19.282Z,1012.5
2016-09-16T02:23:19.931Z,1012.53
2016-09-16T02:24:20.593Z,1012.5
2016-09-16T02:25:21.235Z,1012.52
2016-09-16T02:26:21.875Z,1012.5
2016-09-16T02:27:22.522Z,1012.51
2016-09-16T02:28:23.173Z,1012.51
2016-09-16T02:29:23.824Z,1012.52
2016-09-16T02:30:24.485Z,1012.49
2016-09-16T02:31:25.113Z,1012.51
2016-09-16T02:32:25.752Z,1012.52
2016-09-16T02:33:26.401Z,1012.49
2016-09-16T02:34:27.037Z,1012.49
2016-09-16T02:35:27.691Z,1012.53
2016-09-16T02:36:28.320Z,1012.47
2016-09-16T02:37:28.962Z,1012.45
2016-09-16T02:38:29.593Z,1012.44
2016-09-16T02:39:30.240Z,1012.43
2016-09-16T02:40:30.915Z,1012.41
2016-09-16T02:41:31.565Z,1012.4
2016-09-16T02:42:32.195Z,1012.34
2016-09-16T02:43:32.837Z,1012.38
2016-09-16T02:44:33.483Z,1012.34
2016-09-16T02:45:34.113Z,1012.36
2016-09-16T02:46:34.774Z,1012.33
2016-09-16T02:47:35.415Z,1012.32
2016-09-16T02:48:36.069Z,1012.3
2016-09-16T02:49:36.709Z,1012.29
2016-09-16T02:50:37.371Z,1012.3
2016-09-16T02:51:38.028Z,1012.34
2016-09-16T02:52:38.665Z,1012.32
2016-09-16T02:53:39.295Z,1012.31
2016-09-16T02:54:39.952Z,1012.32
2016-09-16T02:55:40.597Z,1012.34
2016-09-16T02:56:41.254Z,1012.35
2016-09-16T02:57:41.885Z,1012.38
2016-09-16T02:58:42.533Z,1012.38
2016-09-16T02:59:43.213Z,1012.32
2016-09-16T03:00:43.854Z,1012.35
2016-09-16T03:01:44.525Z,1012.37
2016-09-16T03:02:45.183Z,1012.38
2016-09-16T03:03:45.827Z,1012.35
2016-09-16T03:04:46.487Z,1012.34
2016-09-16T03:05:47.147Z,1012.32
2016-09-16T03:06:47.781Z,1012.34
2016-09-16T03:07:48.427Z,1012.28
2016-09-16T03:08:49.068Z,1012.33
2016-09-16T03:09:49.709Z,1012.32
2016-09-16T03:10:50.350Z,1012.33
2016-09-16T03:11:50.981Z,1012.3
2016-09-16T03:12:51.633Z,1012.3
2016-09-16T03:13:52.277Z,1012.31
2016-09-16T03:14:52.896Z,1012.31
2016-09-16T03:15:53.539Z,1012.35
2016-09-16T03:16:54.197Z,1012.33
2016-09-16T03:17:54.848Z,1012.35
2016-09-16T03:18:55.495Z,1012.32
2016-09-16T03:19:56.147Z,1012.32
2016-09-16T03:20:56.779Z,1012.3
2016-09-16T03:21:57.407Z,1012.32
2016-09-16T03:22:58.039Z,1012.35
2016-09-16T03:23:58.704Z,1012.34
2016-09-16T03:24:59.382Z,1012.27
2016-09-16T03:25:59.993Z,1012.35
2016-09-16T03:27:00.668Z,1012.36
2016-09-16T03:28:01.329Z,1012.42
2016-09-16T03:29:01.966Z,1012.45
2016-09-16T03:30:02.617Z,1012.48
2016-09-16T03:31:03.254Z,1012.49
2016-09-16T03:32:03.906Z,1012.53
2016-09-16T03:33:04.539Z,1012.52
2016-09-16T03:34:05.179Z,1012.5
2016-09-16T03:35:05.847Z,1012.48
2016-09-16T03:36:06.507Z,1012.49
2016-09-16T03:37:07.188Z,1012.46
2016-09-16T03:38:07.851Z,1012.48
2016-09-16T03:39:08.491Z,1012.45
2016-09-16T03:40:09.134Z,1012.47
2016-09-16T03:41:09.785Z,1012.49
2016-09-16T03:42:10.424Z,1012.42
2016-09-16T03:43:11.061Z,1012.45
2016-09-16T03:44:11.717Z,1012.49
2016-09-16T03:45:12.349Z,1012.44
2016-09-16T03:46:12.980Z,1012.44
2016-09-16T03:47:13.628Z,1012.44
2016-09-16T03:48:14.269Z,1012.42
2016-09-16T03:49:14.903Z,1012.45
2016-09-16T03:50:15.562Z,1012.4
2016-09-16T03:51:16.227Z,1012.43
2016-09-16T03:52:16.858Z,1012.43
2016-09-16T03:53:17.520Z,1012.46
2016-09-16T03:54:18.150Z,1012.5
2016-09-16T03:55:18.784Z,1012.5
2016-09-16T03:56:19.444Z,1012.49
2016-09-16T03:57:20.082Z,1012.49
2016-09-16T03:58:20.745Z,1012.48
2016-09-16T03:59:21.389Z,1012.5
2016-09-16T04:00:22.039Z,1012.49
2016-09-16T04:01:22.675Z,1012.43
2016-09-16T04:02:23.334Z,1012.46
2016-09-16T04:03:23.987Z,1012.43
2016-09-16T04:04:24.618Z,1012.38
2016-09-16T04:05:25.260Z,1012.38
2016-09-16T04:06:25.906Z,1012.37
2016-09-16T04:07:26.554Z,1012.34
2016-09-16T04:08:27.203Z,1012.36
2016-09-16T04:09:27.841Z,1012.34
2016-09-16T04:10:28.500Z,1012.3
2016-09-16T04:11:29.140Z,1012.29
2016-09-16T04:12:29.780Z,1012.33
2016-09-16T04:13:30.404Z,1012.29
2016-09-16T04:14:31.048Z,1012.26
2016-09-16T04:15:31.710Z,1012.27
2016-09-16T04:16:32.336Z,1012.24
2016-09-16T04:17:32.995Z,1012.24
2016-09-16T04:18:33.633Z,1012.26
2016-09-16T04:19:34.305Z,1012.24
2016-09-16T04:20:34.992Z,1012.25
2016-09-16T04:21:35.655Z,1012.23
2016-09-16T04:22:36.329Z,1012.19
2016-09-16T04:23:36.959Z,1012.19
2016-09-16T04:24:37.608Z,1012.19
2016-09-16T04:25:38.234Z,1012.19
2016-09-16T04:26:38.860Z,1012.22
2016-09-16T04:27:39.501Z,1012.21
2016-09-16T04:28:40.153Z,1012.25
2016-09-16T04:29:40.797Z,1012.22
2016-09-16T04:30:41.442Z,1012.23
2016-09-16T04:31:42.075Z,1012.23
2016-09-16T04:32:42.709Z,1012.21
2016-09-16T04:33:43.365Z,1012.21
2016-09-16T04:34:44.023Z,1012.19
2016-09-16T04:35:44.704Z,1012.17
2016-09-16T04:36:45.349Z,1012.17
2016-09-16T04:37:45.992Z,1012.15
2016-09-16T04:38:46.658Z,1012.16
2016-09-16T04:39:47.291Z,1012.11
2016-09-16T04:40:47.917Z,1012.12
2016-09-16T04:41:48.571Z,1012.07
2016-09-16T04:42:49.201Z,1012.13
2016-09-16T04:43:49.842Z,1012.13
2016-09-16T04:44:50.475Z,1012.1
2016-09-16T04:45:51.119Z,1012.1
2016-09-16T04:46:51.768Z,1012.07
2016-09-16T04:47:52.414Z,1012.11
2016-09-16T04:48:53.067Z,1012.07
2016-09-16T04:49:53.715Z,1012.09
2016-09-16T04:50:54.338Z,1012.03
2016-09-16T04:51:55.698Z,1012.07
2016-09-16T04:52:56.294Z,1012.04
2016-09-16T04:53:56.941Z,1012.07
2016-09-16T04:54:57.603Z,1012.07
2016-09-16T04:55:58.251Z,1012.08
2016-09-16T04:56:58.895Z,1012.11
2016-09-16T04:57:59.532Z,1012.12
2016-09-16T04:59:00.170Z,1012.1
2016-09-16T05:00:00.869Z,1012.13
2016-09-16T05:01:01.500Z,1012.15
2016-09-16T05:02:02.150Z,1012.16
2016-09-16T05:03:02.809Z,1012.17
2016-09-16T05:04:03.466Z,1012.18
2016-09-16T05:05:04.109Z,1012.16
2016-09-16T05:06:04.747Z,1012.19
2016-09-16T05:07:05.398Z,1012.18
2016-09-16T05:08:06.052Z,1012.16
2016-09-16T05:09:06.717Z,1012.16
2016-09-16T05:10:07.364Z,1012.15
2016-09-16T05:11:08.041Z,1012.24
2016-09-16T05:12:08.686Z,1012.23
2016-09-16T05:13:09.334Z,1012.21
2016-09-16T05:14:09.980Z,1012.23
2016-09-16T05:15:10.633Z,1012.25
2016-09-16T05:16:11.283Z,1012.25
2016-09-16T05:17:11.955Z,1012.25
2016-09-16T05:18:12.629Z,1012.26
2016-09-16T05:19:13.297Z,1012.19
2016-09-16T05:20:13.936Z,1012.26
2016-09-16T05:21:14.592Z,1012.27
2016-09-16T05:22:15.241Z,1012.22
2016-09-16T05:23:15.899Z,1012.29
2016-09-16T05:24:16.558Z,1012.27
2016-09-16T05:25:17.192Z,1012.32
2016-09-16T05:26:17.845Z,1012.34
2016-09-16T05:27:18.489Z,1012.37
2016-09-16T05:28:19.133Z,1012.32
2016-09-16T05:29:19.879Z,1012.34
2016-09-16T05:30:20.537Z,1012.35
2016-09-16T05:31:21.179Z,1012.37
2016-09-16T05:32:21.814Z,1012.36
2016-09-16T05:33:22.457Z,1012.35
2016-09-16T05:34:23.107Z,1012.34
2016-09-16T05:35:23.749Z,1012.3
2016-09-16T05:36:24.401Z,1012.35
2016-09-16T05:37:25.047Z,1012.31
2016-09-16T05:38:25.706Z,1012.36
2016-09-16T05:39:26.338Z,1012.34
2016-09-16T05:40:26.980Z,1012.38
2016-09-16T05:41:27.636Z,1012.39
2016-09-16T05:42:28.284Z,1012.43
2016-09-16T05:43:28.925Z,1012.43
2016-09-16T05:44:29.589Z,1012.45
2016-09-16T05:45:30.270Z,1012.44
2016-09-16T05:46:30.912Z,1012.44
2016-09-16T05:47:31.539Z,1012.42
2016-09-16T05:48:32.187Z,1012.44
2016-09-16T05:49:32.863Z,1012.42
2016-09-16T05:50:33.505Z,1012.48
2016-09-16T05:51:34.162Z,1012.49
2016-09-16T05:52:34.807Z,1012.48
2016-09-16T05:53:35.467Z,1012.52
2016-09-16T05:54:36.110Z,1012.53
2016-09-16T05:55:36.755Z,1012.59
2016-09-16T05:56:37.419Z,1012.56
2016-09-16T05:57:38.083Z,1012.55
2016-09-16T05:58:38.713Z,1012.58
2016-09-16T05:59:39.468Z,1012.61
2016-09-16T06:00:40.105Z,1012.57
2016-09-16T06:01:40.757Z,1012.59
2016-09-16T06:02:42.122Z,1012.64
2016-09-16T06:03:43.982Z,1012.65
2016-09-16T06:04:45.835Z,1012.65
2016-09-16T06:05:47.186Z,1012.66
2016-09-16T06:06:48.195Z,1012.63
2016-09-16T06:07:48.859Z,1012.65
2016-09-16T06:08:49.537Z,1012.66
2016-09-16T06:09:50.611Z,1012.71
2016-09-16T06:10:51.861Z,1012.67
2016-09-16T06:11:52.518Z,1012.67
2016-09-16T06:12:53.208Z,1012.7
2016-09-16T06:13:54.148Z,1012.71
2016-09-16T06:14:54.791Z,1012.72
2016-09-16T06:15:55.425Z,1012.69
2016-09-16T06:16:56.103Z,1012.67
2016-09-16T06:17:56.776Z,1012.68
2016-09-16T06:18:57.443Z,1012.72
2016-09-16T06:19:58.098Z,1012.71
2016-09-16T06:20:58.758Z,1012.71
2016-09-16T06:21:59.414Z,1012.72
2016-09-16T06:23:00.081Z,1012.74
2016-09-16T06:24:00.755Z,1012.72
2016-09-16T06:25:01.426Z,1012.67
2016-09-16T06:26:02.074Z,1012.68
2016-09-16T06:27:02.728Z,1012.71
2016-09-16T06:28:03.380Z,1012.73
2016-09-16T06:29:04.050Z,1012.68
2016-09-16T06:30:04.688Z,1012.69
2016-09-16T06:31:05.351Z,1012.68
2016-09-16T06:32:05.999Z,1012.68
2016-09-16T06:33:06.688Z,1012.65
2016-09-16T06:34:07.345Z,1012.64
2016-09-16T06:35:07.991Z,1012.64
2016-09-16T06:36:08.657Z,1012.64
2016-09-16T06:37:09.292Z,1012.57
2016-09-16T06:38:09.958Z,1012.62
2016-09-16T06:39:10.616Z,1012.6
2016-09-16T06:40:11.271Z,1012.61
2016-09-16T06:41:11.930Z,1012.65
2016-09-16T06:42:12.581Z,1012.63
2016-09-16T06:43:13.234Z,1012.65
2016-09-16T06:44:13.881Z,1012.68
2016-09-16T06:45:14.548Z,1012.64
2016-09-16T06:46:15.205Z,1012.65
2016-09-16T06:47:15.866Z,1012.65
2016-09-16T06:48:16.524Z,1012.64
2016-09-16T06:49:17.179Z,1012.62
2016-09-16T06:50:17.826Z,1012.65
2016-09-16T06:51:18.482Z,1012.6
2016-09-16T06:52:19.136Z,1012.62
2016-09-16T06:53:19.813Z,1012.69
2016-09-16T06:54:20.444Z,1012.64
2016-09-16T06:55:21.092Z,1012.64
2016-09-16T06:56:21.731Z,1012.62
2016-09-16T06:57:22.386Z,1012.59
2016-09-16T06:58:23.052Z,1012.63
2016-09-16T06:59:23.699Z,1012.61
2016-09-16T07:00:24.348Z,1012.65
2016-09-16T07:01:24.996Z,1012.63
2016-09-16T07:02:25.638Z,1012.66
2016-09-16T07:03:26.295Z,1012.68
2016-09-16T07:04:26.935Z,1012.64
2016-09-16T07:05:27.605Z,1012.64
2016-09-16T07:06:28.252Z,1012.61
2016-09-16T07:07:28.953Z,1012.63
2016-09-16T07:08:29.587Z,1012.67
2016-09-16T07:09:30.252Z,1012.67
2016-09-16T07:10:30.911Z,1012.65
2016-09-16T07:11:31.584Z,1012.67
2016-09-16T07:12:32.233Z,1012.63
2016-09-16T07:13:32.890Z,1012.54
2016-09-16T07:14:33.584Z,1012.62
2016-09-16T07:15:34.228Z,1012.61
2016-09-16T07:16:34.882Z,1012.56
2016-09-16T07:17:35.541Z,1012.53
2016-09-16T07:18:36.185Z,1012.59
2016-09-16T07:19:36.839Z,1012.58
2016-09-16T07:20:37.488Z,1012.55
2016-09-16T07:21:38.135Z,1012.55
2016-09-16T07:22:38.785Z,1012.53
2016-09-16T07:23:39.442Z,1012.53
2016-09-16T07:24:40.082Z,1012.58
2016-09-16T07:25:40.729Z,1012.56
2016-09-16T07:26:41.355Z,1012.53
2016-09-16T07:27:42.011Z,1012.5
2016-09-16T07:28:42.671Z,1012.57
2016-09-16T07:29:43.315Z,1012.57
2016-09-16T07:30:43.982Z,1012.55
2016-09-16T07:31:44.653Z,1012.61
2016-09-16T07:32:45.283Z,1012.56
2016-09-16T07:33:45.921Z,1012.64
2016-09-16T07:34:46.562Z,1012.64
2016-09-16T07:35:47.221Z,1012.63
2016-09-16T07:36:47.889Z,1012.67
2016-09-16T07:37:48.518Z,1012.66
2016-09-16T07:38:49.169Z,1012.69
2016-09-16T07:39:49.809Z,1012.68
2016-09-16T07:40:50.483Z,1012.64
2016-09-16T07:41:51.138Z,1012.67
2016-09-16T07:42:51.812Z,1012.64
2016-09-16T07:43:52.447Z,1012.65
2016-09-16T07:44:53.105Z,1012.64
2016-09-16T07:45:53.789Z,1012.65
2016-09-16T07:46:54.461Z,1012.61
2016-09-16T07:47:55.103Z,1012.65
2016-09-16T07:48:55.757Z,1012.64
2016-09-16T07:49:56.421Z,1012.63
2016-09-16T07:50:57.087Z,1012.67
2016-09-16T07:51:57.732Z,1012.68
2016-09-16T07:52:58.379Z,1012.64
2016-09-16T07:53:59.040Z,1012.66
2016-09-16T07:54:59.677Z,1012.65
2016-09-16T07:56:00.343Z,1012.62
2016-09-16T07:57:01.025Z,1012.66
2016-09-16T07:58:01.681Z,1012.69
2016-09-16T07:59:02.316Z,1012.65
2016-09-16T08:00:02.963Z,1012.66
2016-09-16T08:01:03.612Z,1012.68
2016-09-16T08:02:04.272Z,1012.64
2016-09-16T08:03:04.928Z,1012.62
2016-09-16T08:04:05.567Z,1012.6
2016-09-16T08:05:06.247Z,1012.65
2016-09-16T08:06:06.916Z,1012.6
2016-09-16T08:07:07.589Z,1012.6
2016-09-16T08:08:08.266Z,1012.54
2016-09-16T08:09:08.938Z,1012.52
2016-09-16T08:10:09.602Z,1012.55
2016-09-16T08:11:10.262Z,1012.51
2016-09-16T08:12:10.899Z,1012.51
2016-09-16T08:13:11.558Z,1012.52
2016-09-16T08:14:12.230Z,1012.59
2016-09-16T08:15:12.887Z,1012.57
2016-09-16T08:16:13.544Z,1012.56
2016-09-16T08:17:14.198Z,1012.57
2016-09-16T08:18:14.882Z,1012.57
2016-09-16T08:19:15.535Z,1012.54
2016-09-16T08:20:16.189Z,1012.59
2016-09-16T08:21:16.858Z,1012.56
2016-09-16T08:22:17.532Z,1012.58
2016-09-16T08:23:18.186Z,1012.64
2016-09-16T08:24:18.845Z,1012.67
2016-09-16T08:25:19.513Z,1012.62
2016-09-16T08:26:20.172Z,1012.58
2016-09-16T08:27:20.845Z,1012.63
2016-09-16T08:28:21.495Z,1012.6
2016-09-16T08:29:22.286Z,1012.56
2016-09-16T08:30:22.946Z,1012.57
2016-09-16T08:31:23.621Z,1012.55
2016-09-16T08:32:24.283Z,1012.5
2016-09-16T08:33:24.970Z,1012.51
2016-09-16T08:34:25.619Z,1012.53
2016-09-16T08:35:26.281Z,1012.49
2016-09-16T08:36:26.937Z,1012.51
2016-09-16T08:37:27.602Z,1012.58
2016-09-16T08:38:28.277Z,1012.51
2016-09-16T08:39:28.950Z,1012.56
2016-09-16T08:40:29.616Z,1012.55
2016-09-16T08:41:30.293Z,1012.54
2016-09-16T08:42:30.943Z,1012.62
2016-09-16T08:43:31.600Z,1012.63
2016-09-16T08:44:32.265Z,1012.6
2016-09-16T08:45:32.930Z,1012.61
2016-09-16T08:46:33.582Z,1012.62
2016-09-16T08:47:34.232Z,1012.63
2016-09-16T08:48:34.909Z,1012.62
2016-09-16T08:49:35.595Z,1012.62
2016-09-16T08:50:36.266Z,1012.63
2016-09-16T08:51:36.921Z,1012.58
2016-09-16T08:52:37.576Z,1012.61
2016-09-16T08:53:38.230Z,1012.54
2016-09-16T08:54:38.910Z,1012.52
2016-09-16T08:55:39.562Z,1012.5
2016-09-16T08:56:40.259Z,1012.53
2016-09-16T08:57:40.978Z,1012.52
2016-09-16T08:58:41.649Z,1012.51
2016-09-16T08:59:42.316Z,1012.55
2016-09-16T09:00:43.003Z,1012.54
2016-09-16T09:01:43.659Z,1012.5
2016-09-16T09:02:44.321Z,1012.47
2016-09-16T09:03:45.003Z,1012.52
2016-09-16T09:04:45.684Z,1012.55
2016-09-16T09:05:46.348Z,1012.51
2016-09-16T09:06:47.035Z,1012.51
2016-09-16T09:07:47.700Z,1012.44
2016-09-16T09:08:48.439Z,1012.42
2016-09-16T09:09:49.121Z,1012.35
2016-09-16T09:10:49.788Z,1012.4
2016-09-16T09:11:52.630Z,1012.35
2016-09-16T09:12:53.297Z,1012.32
2016-09-16T09:13:56.040Z,1012.32
2016-09-16T09:14:56.975Z,1012.32
2016-09-16T09:15:57.701Z,1012.29
2016-09-16T09:16:58.367Z,1012.32
2016-09-16T09:17:59.085Z,1012.29
2016-09-16T09:19:00.011Z,1012.29
2016-09-16T09:20:00.686Z,1012.29
2016-09-16T09:21:01.378Z,1012.31
2016-09-16T09:22:02.235Z,1012.3
2016-09-16T09:23:02.950Z,1012.29
2016-09-16T09:24:03.624Z,1012.3
2016-09-16T09:25:04.290Z,1012.27
2016-09-16T09:26:04.953Z,1012.27
2016-09-16T09:27:05.644Z,1012.28
2016-09-16T09:28:06.316Z,1012.24
2016-09-16T09:29:06.984Z,1012.24
2016-09-16T09:30:07.658Z,1012.24
2016-09-16T09:31:08.327Z,1012.22
2016-09-16T09:32:09.008Z,1012.25
2016-09-16T09:33:09.690Z,1012.28
2016-09-16T09:34:10.414Z,1012.25
2016-09-16T09:35:11.357Z,1012.23
2016-09-16T09:36:12.055Z,1012.18
2016-09-16T09:37:12.729Z,1012.17
2016-09-16T09:38:13.398Z,1012.2
2016-09-16T09:39:14.068Z,1012.2
2016-09-16T09:40:14.733Z,1012.19
2016-09-16T09:41:15.409Z,1012.19
2016-09-16T09:42:16.072Z,1012.22
2016-09-16T09:43:16.743Z,1012.27
2016-09-16T09:44:17.432Z,1012.26
2016-09-16T09:45:18.102Z,1012.25
2016-09-16T09:46:19.408Z,1012.26
2016-09-16T09:47:20.807Z,1012.26
2016-09-16T09:48:21.088Z,1012.29
2016-09-16T09:49:22.028Z,1012.31
2016-09-16T09:50:22.814Z,1012.31
2016-09-16T09:51:23.444Z,1012.33
2016-09-16T09:52:24.145Z,1012.37
2016-09-16T09:53:24.854Z,1012.36
2016-09-16T09:54:25.543Z,1012.34
2016-09-16T09:55:26.255Z,1012.35
2016-09-16T09:56:27.219Z,1012.34
2016-09-16T09:57:28.047Z,1012.32
2016-09-16T09:58:28.802Z,1012.35
2016-09-16T09:59:29.537Z,1012.32
2016-09-16T10:00:30.298Z,1012.34
2016-09-16T10:01:31.210Z,1012.33
2016-09-16T10:02:32.391Z,1012.33
2016-09-16T10:03:33.071Z,1012.3
2016-09-16T10:04:33.760Z,1012.3
2016-09-16T10:05:34.427Z,1012.27
2016-09-16T10:06:35.120Z,1012.25
2016-09-16T10:07:35.796Z,1012.24
2016-09-16T10:08:36.461Z,1012.24
2016-09-16T10:09:37.122Z,1012.18
2016-09-16T10:10:37.915Z,1012.22
2016-09-16T10:11:38.539Z,1012.27
2016-09-16T10:12:39.196Z,1012.28
2016-09-16T10:13:39.851Z,1012.26
2016-09-16T10:14:40.520Z,1012.28
2016-09-16T10:15:41.178Z,1012.28
2016-09-16T10:16:41.846Z,1012.27
2016-09-16T10:17:42.515Z,1012.31
2016-09-16T10:18:43.181Z,1012.32
2016-09-16T10:19:43.835Z,1012.33
2016-09-16T10:20:44.493Z,1012.4
2016-09-16T10:21:45.136Z,1012.36
2016-09-16T10:22:45.785Z,1012.41
2016-09-16T10:23:46.439Z,1012.44
2016-09-16T10:24:47.102Z,1012.4
2016-09-16T10:25:47.826Z,1012.45
2016-09-16T10:26:48.459Z,1012.46
2016-09-16T10:27:49.133Z,1012.48
2016-09-16T10:28:49.814Z,1012.46
2016-09-16T10:29:50.515Z,1012.47
2016-09-16T10:30:51.188Z,1012.46
2016-09-16T10:31:51.849Z,1012.44
2016-09-16T10:32:52.520Z,1012.44
2016-09-16T10:33:53.214Z,1012.44
2016-09-16T10:34:53.915Z,1012.43
2016-09-16T10:35:54.635Z,1012.46
2016-09-16T10:36:55.352Z,1012.44
2016-09-16T10:37:56.025Z,1012.49
2016-09-16T10:38:56.728Z,1012.49
2016-09-16T10:39:57.388Z,1012.49
2016-09-16T10:40:58.055Z,1012.48
2016-09-16T10:41:58.735Z,1012.5
2016-09-16T10:42:59.427Z,1012.52
2016-09-16T10:44:00.120Z,1012.54
2016-09-16T10:45:00.801Z,1012.49
2016-09-16T10:46:01.485Z,1012.53
2016-09-16T10:47:02.146Z,1012.49
2016-09-16T10:48:02.841Z,1012.52
2016-09-16T10:49:03.499Z,1012.55
2016-09-16T10:50:04.167Z,1012.58
2016-09-16T10:51:04.824Z,1012.51
2016-09-16T10:52:05.503Z,1012.51
2016-09-16T10:53:06.186Z,1012.52
2016-09-16T10:54:06.870Z,1012.53
2016-09-16T10:55:07.599Z,1012.56
2016-09-16T10:56:08.261Z,1012.59
2016-09-16T10:57:08.926Z,1012.57
2016-09-16T10:58:09.653Z,1012.53
2016-09-16T10:59:10.323Z,1012.54
2016-09-16T11:00:11.048Z,1012.53
2016-09-16T11:01:11.715Z,1012.54
2016-09-16T11:02:12.479Z,1012.53
2016-09-16T11:03:13.114Z,1012.54
2016-09-16T11:04:13.784Z,1012.54
2016-09-16T11:05:14.533Z,1012.53
2016-09-16T11:06:15.211Z,1012.5
2016-09-16T11:07:15.908Z,1012.54
2016-09-16T11:08:16.635Z,1012.56
2016-09-16T11:09:17.379Z,1012.58
2016-09-16T11:10:18.036Z,1012.59
2016-09-16T11:11:18.691Z,1012.6
2016-09-16T11:12:20.742Z,1012.64
2016-09-16T11:13:22.838Z,1012.6
2016-09-16T11:14:23.515Z,1012.63
2016-09-16T11:15:24.180Z,1012.6
2016-09-16T11:16:26.403Z,1012.62
2016-09-16T11:17:27.596Z,1012.56
2016-09-16T11:18:28.975Z,1012.58
2016-09-16T11:19:29.810Z,1012.58
2016-09-16T11:20:30.619Z,1012.55
2016-09-16T11:21:31.575Z,1012.53
2016-09-16T11:22:32.130Z,1012.57
2016-09-16T11:23:32.813Z,1012.55
2016-09-16T11:24:33.465Z,1012.56
2016-09-16T11:25:35.271Z,1012.52
2016-09-16T11:26:35.982Z,1012.53
2016-09-16T11:27:36.995Z,1012.53
2016-09-16T11:28:37.988Z,1012.48
2016-09-16T11:29:39.163Z,1012.51
2016-09-16T11:30:39.851Z,1012.52
2016-09-16T11:31:40.528Z,1012.5
2016-09-16T11:32:41.189Z,1012.47
2016-09-16T11:33:41.912Z,1012.47
2016-09-16T11:34:42.594Z,1012.48
2016-09-16T11:35:43.264Z,1012.46
2016-09-16T11:36:43.987Z,1012.47
2016-09-16T11:37:44.898Z,1012.48
2016-09-16T11:38:45.611Z,1012.51
2016-09-16T11:39:46.259Z,1012.45
2016-09-16T11:40:46.932Z,1012.45
2016-09-16T11:41:47.584Z,1012.43
2016-09-16T11:42:48.257Z,1012.43
2016-09-16T11:43:48.921Z,1012.47
2016-09-16T11:44:49.602Z,1012.49
2016-09-16T11:45:50.259Z,1012.48
2016-09-16T11:46:50.937Z,1012.48
2016-09-16T11:47:51.587Z,1012.45
2016-09-16T11:48:52.299Z,1012.46
2016-09-16T11:49:52.962Z,1012.41
2016-09-16T11:50:53.654Z,1012.47
2016-09-16T11:51:54.396Z,1012.46
2016-09-16T11:52:55.107Z,1012.49
2016-09-16T11:53:55.767Z,1012.5
2016-09-16T11:54:56.430Z,1012.5
2016-09-16T11:55:57.100Z,1012.49
2016-09-16T11:56:57.778Z,1012.44
2016-09-16T11:57:58.457Z,1012.45
2016-09-16T11:58:59.133Z,1012.47
2016-09-16T11:59:59.799Z,1012.46
2016-09-16T12:01:00.490Z,1012.47
2016-09-16T12:02:01.139Z,1012.48
2016-09-16T12:03:01.820Z,1012.5
2016-09-16T12:04:02.489Z,1012.55
2016-09-16T12:05:03.148Z,1012.55
2016-09-16T12:06:03.833Z,1012.49
2016-09-16T12:07:04.500Z,1012.57
2016-09-16T12:08:05.177Z,1012.56
2016-09-16T12:09:05.855Z,1012.55
2016-09-16T12:10:06.519Z,1012.54
2016-09-16T12:11:07.202Z,1012.55
2016-09-16T12:12:07.875Z,1012.54
2016-09-16T12:13:08.536Z,1012.52
2016-09-16T12:14:09.211Z,1012.52
2016-09-16T12:15:09.870Z,1012.52
2016-09-16T12:16:10.543Z,1012.48